createdAt,value
2022-12-14T00:00:14.842Z,58.80
2022-12-14T00:01:19.377Z,66.10
2022-12-14T00:02:20.947Z,58.75
2022-12-14T00:03:22.652Z,58.63
2022-12-14T00:04:24.258Z,63.67
2022-12-14T00:05:27.897Z,57.30
2022-12-14T00:06:31.523Z,64.53
2022-12-14T00:07:34.405Z,61.67
2022-12-14T00:08:41.520Z,67.90
2022-12-14T00:09:43.453Z,65.00
2022-12-14T00:10:45.312Z,60.83
2022-12-14T00:11:46.815Z,66.43
2022-12-14T00:12:48.382Z,66.75
2022-12-14T00:13:51.798Z,67.88
2022-12-14T00:14:53.291Z,66.30
2022-12-14T00:15:54.847Z,64.30
2022-12-14T00:16:56.381Z,63.28
2022-12-14T00:17:57.942Z,66.32
2022-12-14T00:19:00.941Z,65.55
2022-12-14T00:20:02.508Z,63.00
2022-12-14T00:21:05.889Z,64.63
2022-12-14T00:22:07.374Z,66.78
2022-12-14T00:23:10.827Z,66.03
2022-12-14T00:24:12.319Z,60.67
2022-12-14T00:25:13.880Z,60.90
2022-12-14T00:26:17.266Z,65.97
2022-12-14T00:27:18.766Z,60.00
2022-12-14T00:28:20.292Z,65.00
2022-12-14T00:29:21.779Z,68.35
2022-12-14T00:30:23.341Z,72.18
2022-12-14T00:31:25.383Z,62.70
2022-12-14T00:32:26.960Z,63.45
2022-12-14T00:33:28.494Z,63.15
2022-12-14T00:34:30.026Z,67.90
2022-12-14T00:35:31.520Z,60.45
2022-12-14T00:36:33.022Z,70.13
2022-12-14T00:37:34.562Z,63.58
2022-12-14T00:38:38.217Z,61.60
2022-12-14T00:39:39.761Z,63.78
2022-12-14T00:40:41.260Z,63.70
2022-12-14T00:41:42.763Z,65.03
2022-12-14T00:42:44.275Z,65.53
2022-12-14T00:43:45.779Z,66.75
2022-12-14T00:44:51.053Z,59.30
2022-12-14T00:45:52.585Z,62.22
2022-12-14T00:46:54.170Z,64.40
2022-12-14T00:47:55.680Z,64.57
2022-12-14T00:48:57.165Z,66.25
2022-12-14T00:49:58.720Z,65.07
2022-12-14T00:51:00.896Z,69.03
2022-12-14T00:52:14.768Z,68.00
2022-12-14T00:53:16.350Z,65.45
2022-12-14T00:54:19.270Z,65.85
2022-12-14T00:55:20.792Z,70.20
2022-12-14T00:56:22.393Z,71.60
2022-12-14T00:57:23.894Z,67.93
2022-12-14T00:58:25.687Z,63.92
2022-12-14T00:59:27.536Z,64.32
2022-12-14T01:00:29.041Z,70.22
2022-12-14T01:01:30.729Z,66.68
2022-12-14T01:02:32.409Z,67.13
2022-12-14T01:03:34.788Z,71.70
2022-12-14T01:04:36.571Z,69.95
2022-12-14T01:05:38.141Z,65.43
2022-12-14T01:06:39.692Z,64.35
2022-12-14T01:07:41.183Z,66.65
2022-12-14T01:08:42.746Z,66.45
2022-12-14T01:09:45.606Z,67.00
2022-12-14T01:10:47.257Z,71.35
2022-12-14T01:11:48.800Z,69.68
2022-12-14T01:12:50.373Z,67.78
2022-12-14T01:13:51.911Z,69.38
2022-12-14T01:14:53.405Z,65.00
2022-12-14T01:15:54.947Z,73.10
2022-12-14T01:16:56.503Z,67.03
2022-12-14T01:17:57.990Z,70.38
2022-12-14T01:19:00.193Z,64.88
2022-12-14T01:20:01.848Z,66.95
2022-12-14T01:21:15.555Z,65.40
2022-12-14T01:22:17.065Z,65.25
2022-12-14T01:23:18.561Z,63.50
2022-12-14T01:24:20.105Z,68.55
2022-12-14T01:25:23.467Z,66.03
2022-12-14T01:26:26.167Z,68.85
2022-12-14T01:27:27.699Z,65.93
2022-12-14T01:28:29.191Z,68.20
2022-12-14T01:29:30.704Z,70.30
2022-12-14T01:30:32.204Z,71.50
2022-12-14T01:31:35.543Z,69.10
2022-12-14T01:32:37.114Z,71.00
2022-12-14T01:33:39.245Z,70.85
2022-12-14T01:34:40.747Z,71.43
2022-12-14T01:35:42.234Z,70.88
2022-12-14T01:36:43.783Z,70.55
2022-12-14T01:37:45.275Z,70.22
2022-12-14T01:38:54.021Z,67.78
2022-12-14T01:39:55.624Z,68.05
2022-12-14T01:40:58.983Z,75.82
2022-12-14T01:42:00.513Z,71.38
2022-12-14T01:43:02.060Z,68.60
2022-12-14T01:44:19.623Z,64.72
2022-12-14T01:45:22.366Z,67.63
2022-12-14T01:46:29.445Z,64.28
2022-12-14T01:47:39.802Z,68.72
2022-12-14T01:48:41.367Z,64.03
2022-12-14T01:49:47.467Z,63.55
2022-12-14T01:50:50.004Z,66.55
2022-12-14T01:51:55.631Z,67.07
2022-12-14T01:53:00.567Z,67.30
2022-12-14T01:54:06.257Z,69.35
2022-12-14T01:55:13.318Z,73.20
2022-12-14T01:56:16.737Z,75.63
2022-12-14T01:57:24.387Z,72.82
2022-12-14T01:58:27.381Z,72.60
2022-12-14T01:59:33.707Z,65.82
2022-12-14T02:00:36.175Z,72.18
2022-12-14T02:01:38.013Z,71.28
2022-12-14T02:02:44.155Z,67.88
2022-12-14T02:03:49.785Z,68.50
2022-12-14T02:04:54.695Z,74.53
2022-12-14T02:06:00.908Z,70.72
2022-12-14T02:07:03.503Z,67.72
2022-12-14T02:08:06.009Z,78.90
2022-12-14T02:09:10.799Z,71.30
2022-12-14T02:10:12.314Z,73.22
2022-12-14T02:11:14.778Z,72.95
2022-12-14T02:12:20.453Z,70.35
2022-12-14T02:13:25.373Z,77.28
2022-12-14T02:14:27.220Z,77.20
2022-12-14T02:15:29.734Z,71.28
2022-12-14T02:16:32.213Z,69.63
2022-12-14T02:17:33.906Z,68.43
2022-12-14T02:18:35.975Z,65.45
2022-12-14T02:19:38.379Z,71.10
2022-12-14T02:20:48.782Z,72.93
2022-12-14T02:22:12.610Z,66.72
2022-12-14T02:23:51.911Z,68.75
2022-12-14T02:25:13.836Z,66.60
2022-12-14T02:26:49.947Z,62.05
2022-12-14T02:28:24.585Z,61.35
2022-12-14T02:29:45.625Z,63.28
2022-12-14T02:30:56.083Z,60.88
2022-12-14T02:32:08.672Z,62.72
2022-12-14T02:33:25.683Z,67.15
2022-12-14T02:34:37.112Z,61.33
2022-12-14T02:35:44.651Z,65.00
2022-12-14T02:36:55.954Z,67.40
2022-12-14T02:39:11.758Z,60.30
2022-12-14T02:40:24.398Z,64.70
2022-12-14T02:41:34.227Z,65.38
2022-12-14T02:42:46.312Z,70.18
2022-12-14T02:43:57.572Z,67.80
2022-12-14T02:45:09.474Z,70.75
2022-12-14T02:46:18.699Z,67.63
2022-12-14T02:47:26.427Z,67.90
2022-12-14T02:48:35.807Z,68.20
2022-12-14T02:49:53.453Z,70.80
2022-12-14T02:50:59.767Z,67.35
2022-12-14T02:52:06.125Z,65.07
2022-12-14T02:53:15.318Z,68.75
2022-12-14T02:54:24.250Z,73.05
2022-12-14T02:55:31.194Z,72.65
2022-12-14T02:56:37.966Z,71.85
2022-12-14T02:57:44.520Z,68.03
2022-12-14T02:58:48.183Z,70.57
2022-12-14T02:59:53.961Z,72.43
2022-12-14T03:00:57.437Z,74.28
2022-12-14T03:02:02.225Z,70.93
2022-12-14T03:03:05.662Z,72.35
2022-12-14T03:04:08.022Z,72.00
2022-12-14T03:05:09.906Z,73.13
2022-12-14T03:06:14.416Z,69.97
2022-12-14T03:07:31.453Z,64.32
2022-12-14T03:08:35.253Z,70.18
2022-12-14T03:09:36.794Z,73.50
2022-12-14T03:10:43.840Z,69.15
2022-12-14T03:11:51.251Z,70.10
2022-12-14T03:12:57.179Z,65.60
2022-12-14T03:14:03.207Z,75.75
2022-12-14T03:15:07.009Z,70.07
2022-12-14T03:16:14.882Z,67.28
2022-12-14T03:17:20.779Z,71.28
2022-12-14T03:18:26.587Z,69.13
2022-12-14T03:19:33.272Z,69.13
2022-12-14T03:20:37.334Z,70.95
2022-12-14T03:21:44.137Z,70.63
2022-12-14T03:22:52.734Z,65.60
2022-12-14T03:23:56.537Z,62.22
2022-12-14T03:25:02.765Z,68.90
2022-12-14T03:26:15.563Z,69.63
2022-12-14T03:27:22.712Z,71.35
2022-12-14T03:28:28.949Z,69.05
2022-12-14T03:29:35.478Z,75.15
2022-12-14T03:30:59.479Z,70.18
2022-12-14T03:32:08.405Z,65.85
2022-12-14T03:33:14.996Z,68.95
2022-12-14T03:34:19.135Z,68.47
2022-12-14T03:35:26.064Z,70.43
2022-12-14T03:36:34.616Z,71.70
2022-12-14T03:37:41.434Z,68.47
2022-12-14T03:38:44.475Z,74.18
2022-12-14T03:39:47.289Z,70.18
2022-12-14T03:40:55.193Z,75.35
2022-12-14T03:42:04.011Z,79.55
2022-12-14T03:43:15.256Z,78.13
2022-12-14T03:44:30.175Z,73.15
2022-12-14T03:45:38.175Z,74.97
2022-12-14T03:46:46.020Z,71.35
2022-12-14T03:48:00.498Z,73.40
2022-12-14T03:49:10.731Z,75.75
2022-12-14T03:50:18.914Z,73.65
2022-12-14T03:51:30.063Z,68.32
2022-12-14T03:52:36.270Z,74.03
2022-12-14T03:53:45.734Z,72.93
2022-12-14T03:54:54.512Z,72.90
2022-12-14T03:56:00.206Z,71.50
2022-12-14T03:57:09.066Z,73.40
2022-12-14T03:58:24.160Z,75.13
2022-12-14T03:59:32.225Z,73.55
2022-12-14T04:00:45.005Z,78.90
2022-12-14T04:01:53.656Z,69.32
2022-12-14T04:03:02.927Z,73.25
2022-12-14T04:04:10.763Z,73.30
2022-12-14T04:05:49.129Z,78.82
2022-12-14T04:06:55.192Z,70.55
2022-12-14T04:08:05.219Z,76.85
2022-12-14T04:09:19.668Z,82.32
2022-12-14T04:10:26.923Z,82.10
2022-12-14T04:11:33.647Z,69.25
2022-12-14T04:12:38.497Z,82.50
2022-12-14T04:13:42.543Z,72.80
2022-12-14T04:14:48.894Z,70.43
2022-12-14T04:15:55.197Z,77.72
2022-12-14T04:17:00.644Z,77.68
2022-12-14T04:18:07.400Z,78.60
2022-12-14T04:19:16.099Z,74.10
2022-12-14T04:20:21.987Z,73.32
2022-12-14T04:21:30.779Z,79.32
2022-12-14T04:22:37.779Z,75.53
2022-12-14T04:23:48.821Z,73.53
2022-12-14T04:24:56.968Z,75.28
2022-12-14T04:25:58.506Z,74.97
2022-12-14T04:27:04.475Z,75.78
2022-12-14T04:28:11.169Z,64.53
2022-12-14T04:29:17.410Z,75.22
2022-12-14T04:30:19.137Z,77.47
2022-12-14T04:31:25.179Z,74.45
2022-12-14T04:32:31.952Z,75.03
2022-12-14T04:33:54.363Z,72.88
2022-12-14T04:35:01.449Z,71.60
2022-12-14T04:36:04.040Z,72.13
2022-12-14T04:37:11.460Z,73.28
2022-12-14T04:38:18.676Z,70.72
2022-12-14T04:39:25.173Z,77.85
2022-12-14T04:40:31.928Z,72.50
2022-12-14T04:41:39.030Z,76.72
2022-12-14T04:42:46.157Z,72.65
2022-12-14T04:43:50.697Z,80.07
2022-12-14T04:44:56.665Z,79.90
2022-12-14T04:46:03.736Z,85.13
2022-12-14T04:47:09.161Z,84.60
2022-12-14T04:48:21.671Z,79.55
2022-12-14T04:49:31.057Z,83.20
2022-12-14T04:50:37.274Z,83.10
2022-12-14T04:51:45.788Z,76.63
2022-12-14T04:52:51.206Z,77.90
2022-12-14T04:53:57.758Z,92.55
2022-12-14T04:55:05.382Z,86.07
2022-12-14T04:56:13.395Z,79.60
2022-12-14T04:57:19.668Z,91.70
2022-12-14T04:58:25.096Z,97.22
2022-12-14T04:59:27.107Z,90.88
2022-12-14T05:00:33.240Z,96.97
2022-12-14T05:01:48.968Z,98.05
2022-12-14T05:03:12.032Z,102.28
2022-12-14T05:04:23.442Z,88.57
2022-12-14T05:06:37.563Z,80.32
2022-12-14T05:07:49.122Z,82.00
2022-12-14T05:09:14.651Z,82.55
2022-12-14T05:10:23.785Z,82.82
2022-12-14T05:11:52.476Z,89.50
2022-12-14T05:13:08.221Z,82.70
2022-12-14T05:14:17.130Z,82.28
2022-12-14T05:15:22.352Z,87.80
2022-12-14T05:16:24.980Z,87.38
2022-12-14T05:17:27.427Z,88.35
2022-12-14T05:18:29.380Z,94.55
2022-12-14T05:19:31.003Z,91.93
2022-12-14T05:20:33.842Z,90.93
2022-12-14T05:21:35.465Z,92.57
2022-12-14T05:22:36.987Z,91.60
2022-12-14T05:23:38.486Z,100.15
2022-12-14T05:24:40.031Z,93.00
2022-12-14T05:25:41.708Z,88.47
2022-12-14T05:26:43.858Z,98.88
2022-12-14T05:27:45.365Z,101.10
2022-12-14T05:28:50.392Z,106.20
2022-12-14T05:29:52.136Z,102.22
2022-12-14T05:30:53.633Z,98.78
2022-12-14T05:31:55.308Z,100.60
2022-12-14T05:32:57.545Z,97.63
2022-12-14T05:33:59.023Z,94.68
2022-12-14T05:35:00.594Z,97.25
2022-12-14T05:36:03.719Z,98.72
2022-12-14T05:37:05.301Z,100.57
2022-12-14T05:38:06.816Z,100.35
2022-12-14T05:39:08.330Z,100.05
2022-12-14T05:40:11.296Z,98.88
2022-12-14T05:41:13.491Z,95.95
2022-12-14T05:42:16.860Z,105.20
2022-12-14T05:43:18.606Z,105.35
2022-12-14T05:44:20.647Z,94.97
2022-12-14T05:45:22.387Z,108.05
2022-12-14T05:46:24.201Z,103.85
2022-12-14T05:47:26.730Z,105.40
2022-12-14T05:48:28.493Z,102.82
2022-12-14T05:49:30.187Z,102.70
2022-12-14T05:50:32.292Z,114.15
2022-12-14T05:51:35.891Z,102.15
2022-12-14T05:52:37.445Z,102.63
2022-12-14T05:53:40.037Z,104.65
2022-12-14T05:54:41.563Z,106.00
2022-12-14T05:55:46.896Z,114.18
2022-12-14T05:56:50.680Z,120.82
2022-12-14T05:57:52.211Z,120.45
2022-12-14T05:58:53.879Z,114.82
2022-12-14T05:59:55.378Z,120.38
2022-12-14T06:01:00.017Z,106.03
2022-12-14T06:02:01.786Z,107.57
2022-12-14T06:03:03.688Z,100.90
2022-12-14T06:04:05.338Z,125.50
2022-12-14T06:05:07.355Z,119.88
2022-12-14T06:06:13.740Z,127.25
2022-12-14T06:07:17.123Z,129.98
2022-12-14T06:08:19.644Z,117.85
2022-12-14T06:09:21.129Z,99.47
2022-12-14T06:10:22.828Z,104.40
2022-12-14T06:11:24.490Z,107.78
2022-12-14T06:12:25.997Z,104.40
2022-12-14T06:13:27.902Z,104.15
2022-12-14T06:14:29.687Z,103.72
2022-12-14T06:15:34.138Z,113.88
2022-12-14T06:16:36.781Z,97.95
2022-12-14T06:17:42.668Z,103.28
2022-12-14T06:18:46.086Z,94.95
2022-12-14T06:19:49.947Z,103.95
2022-12-14T06:25:01.548Z,92.72
2022-12-14T06:26:03.766Z,93.55
2022-12-14T06:27:05.763Z,104.63
2022-12-14T06:28:07.235Z,101.65
2022-12-14T06:29:13.998Z,98.28
2022-12-14T06:30:16.500Z,100.05
2022-12-14T06:31:20.086Z,121.10
2022-12-14T06:32:21.781Z,112.35
2022-12-14T06:33:23.337Z,102.22
2022-12-14T06:34:28.488Z,106.95
2022-12-14T06:35:30.321Z,109.28
2022-12-14T06:36:33.707Z,101.22
2022-12-14T06:37:35.173Z,99.82
2022-12-14T06:38:36.676Z,97.75
2022-12-14T06:39:38.295Z,100.22
2022-12-14T06:40:41.255Z,103.28
2022-12-14T06:41:43.243Z,108.30
2022-12-14T06:42:47.035Z,95.68
2022-12-14T06:43:49.363Z,96.93
2022-12-14T06:44:51.266Z,103.45
2022-12-14T06:45:52.847Z,109.10
2022-12-14T06:46:54.502Z,113.63
2022-12-14T06:47:56.069Z,114.53
2022-12-14T06:48:57.562Z,93.57
2022-12-14T06:49:59.062Z,102.18
2022-12-14T06:51:00.812Z,97.90
2022-12-14T06:52:02.296Z,99.20
2022-12-14T06:53:03.868Z,118.63
2022-12-14T06:54:05.408Z,105.30
2022-12-14T06:55:07.507Z,106.45
2022-12-14T06:56:13.090Z,115.15
2022-12-14T06:57:15.651Z,104.50
2022-12-14T06:58:17.161Z,107.50
2022-12-14T06:59:18.672Z,97.35
2022-12-14T07:00:21.697Z,111.47
2022-12-14T07:01:25.165Z,108.47
2022-12-14T07:02:26.897Z,102.22
2022-12-14T07:03:28.964Z,109.28
2022-12-14T07:04:42.686Z,102.22
2022-12-14T07:05:48.801Z,113.18
2022-12-14T07:06:50.631Z,97.93
2022-12-14T07:08:01.022Z,102.47
2022-12-14T07:09:04.469Z,102.32
2022-12-14T07:10:07.284Z,105.53
2022-12-14T07:11:12.125Z,119.85
2022-12-14T07:12:13.655Z,96.00
2022-12-14T07:13:15.143Z,108.80
2022-12-14T07:14:17.143Z,101.32
2022-12-14T07:15:18.706Z,105.55
2022-12-14T07:16:22.126Z,107.80
2022-12-14T07:18:00.832Z,108.18
2022-12-14T07:19:02.373Z,103.75
2022-12-14T07:20:05.535Z,102.90
2022-12-14T07:21:08.748Z,124.20
2022-12-14T07:22:10.291Z,113.45
2022-12-14T07:23:11.782Z,135.13
2022-12-14T07:24:13.719Z,163.40
2022-12-14T07:25:15.317Z,162.13
2022-12-14T07:26:19.696Z,140.20
2022-12-14T07:27:21.194Z,147.20
2022-12-14T07:28:22.690Z,147.07
2022-12-14T07:29:24.146Z,130.50
2022-12-14T07:30:25.606Z,123.30
2022-12-14T07:31:28.602Z,136.68
2022-12-14T07:32:30.128Z,122.75
2022-12-14T07:33:31.873Z,136.38
2022-12-14T07:34:33.351Z,135.07
2022-12-14T07:35:34.868Z,122.55
2022-12-14T07:36:36.358Z,131.43
2022-12-14T07:37:37.865Z,122.78
2022-12-14T07:38:42.236Z,142.85
2022-12-14T07:39:43.766Z,120.78
2022-12-14T07:40:45.455Z,122.43
2022-12-14T07:41:48.992Z,132.35
2022-12-14T07:42:50.497Z,110.45
2022-12-14T07:43:54.626Z,116.15
2022-12-14T07:44:56.146Z,106.75
2022-12-14T07:46:01.489Z,116.72
2022-12-14T07:47:03.080Z,102.07
2022-12-14T07:48:06.435Z,109.47
2022-12-14T07:49:08.112Z,121.13
2022-12-14T07:50:09.906Z,117.03
2022-12-14T07:51:13.312Z,127.90
2022-12-14T07:52:14.862Z,102.13
2022-12-14T07:53:16.365Z,115.88
2022-12-14T07:54:17.967Z,109.53
2022-12-14T07:55:19.723Z,117.43
2022-12-14T07:56:23.760Z,113.90
2022-12-14T07:57:26.587Z,112.07
2022-12-14T07:58:28.131Z,114.88
2022-12-14T07:59:29.654Z,107.35
2022-12-14T08:00:31.184Z,106.50
2022-12-14T08:01:33.963Z,110.93
2022-12-14T08:02:35.720Z,106.75
2022-12-14T08:03:41.211Z,117.82
2022-12-14T08:04:42.864Z,110.72
2022-12-14T08:05:44.428Z,105.22
2022-12-14T08:06:46.897Z,106.30
2022-12-14T08:07:48.528Z,93.10
2022-12-14T08:08:50.067Z,94.15
2022-12-14T08:09:51.720Z,95.90
2022-12-14T08:10:53.231Z,101.00
2022-12-14T08:11:54.719Z,106.15
2022-12-14T08:12:57.563Z,105.03
2022-12-14T08:14:00.717Z,109.25
2022-12-14T08:15:02.220Z,107.05
2022-12-14T08:16:04.505Z,107.15
2022-12-14T08:17:06.061Z,105.32
2022-12-14T08:18:07.541Z,102.85
2022-12-14T08:19:10.315Z,107.53
2022-12-14T08:20:11.965Z,113.35
2022-12-14T08:21:14.188Z,122.63
2022-12-14T08:22:15.667Z,247.98
2022-12-14T08:23:17.264Z,108.55
2022-12-14T08:24:18.783Z,107.47
2022-12-14T08:25:20.282Z,103.82
2022-12-14T08:26:23.248Z,101.50
2022-12-14T08:27:24.765Z,94.53
2022-12-14T08:28:29.973Z,107.32
2022-12-14T08:29:31.451Z,116.85
2022-12-14T08:30:32.958Z,114.60
2022-12-14T08:31:34.844Z,110.28
2022-12-14T08:32:36.392Z,107.97
2022-12-14T08:33:39.362Z,112.25
2022-12-14T08:34:40.887Z,103.18
2022-12-14T08:35:42.402Z,99.47
2022-12-14T08:36:43.893Z,100.82
2022-12-14T08:37:47.673Z,104.78
2022-12-14T08:38:52.950Z,96.35
2022-12-14T08:39:54.453Z,98.07
2022-12-14T08:40:55.948Z,101.85
2022-12-14T08:41:57.474Z,100.15
2022-12-14T08:42:58.961Z,93.28
2022-12-14T08:44:03.492Z,87.28
2022-12-14T08:45:05.915Z,93.80
2022-12-14T08:46:09.133Z,96.22
2022-12-14T08:47:10.819Z,93.55
2022-12-14T08:48:12.333Z,103.53
2022-12-14T08:49:13.856Z,99.20
2022-12-14T08:50:15.487Z,103.85
2022-12-14T08:51:17.325Z,96.30
2022-12-14T08:52:18.816Z,92.00
2022-12-14T08:53:21.603Z,90.30
2022-12-14T08:54:23.084Z,94.57
2022-12-14T08:55:29.225Z,92.78
2022-12-14T08:56:32.989Z,89.07
2022-12-14T08:57:34.508Z,100.00
2022-12-14T08:58:36.286Z,100.45
2022-12-14T09:00:00.650Z,94.90
2022-12-14T09:01:01.930Z,100.30
2022-12-14T09:02:03.681Z,113.15
2022-12-14T09:03:05.634Z,101.88
2022-12-14T09:04:08.528Z,98.53
2022-12-14T09:05:10.201Z,94.07
2022-12-14T09:06:14.398Z,96.65
2022-12-14T09:07:15.956Z,97.63
2022-12-14T09:08:17.397Z,112.22
2022-12-14T09:09:18.903Z,108.05
2022-12-14T09:10:20.379Z,97.28
2022-12-14T09:11:22.276Z,88.95
2022-12-14T09:12:23.851Z,96.60
2022-12-14T09:13:25.687Z,87.43
2022-12-14T09:14:27.360Z,94.00
2022-12-14T09:15:30.209Z,83.60
2022-12-14T09:16:31.758Z,94.72
2022-12-14T09:17:33.343Z,92.47
2022-12-14T09:18:35.063Z,88.68
2022-12-14T09:19:36.531Z,93.88
2022-12-14T09:20:38.014Z,102.13
2022-12-14T09:21:39.518Z,95.03
2022-12-14T09:22:41.036Z,108.95
2022-12-14T09:23:43.937Z,93.90
2022-12-14T09:24:45.477Z,91.20
2022-12-14T09:25:47.185Z,99.80
2022-12-14T09:26:48.671Z,92.68
2022-12-14T09:27:50.187Z,90.10
2022-12-14T09:28:53.998Z,88.75
2022-12-14T09:29:55.505Z,84.78
2022-12-14T09:31:00.494Z,82.30
2022-12-14T09:32:02.039Z,86.32
2022-12-14T09:33:09.707Z,88.50
2022-12-14T09:34:12.501Z,86.70
2022-12-14T09:35:14.174Z,93.53
2022-12-14T09:36:17.629Z,90.18
2022-12-14T09:37:19.117Z,79.57
2022-12-14T09:38:20.947Z,84.93
2022-12-14T09:39:22.698Z,83.53
2022-12-14T09:40:27.584Z,94.18
2022-12-14T09:41:50.565Z,98.40
2022-12-14T09:43:00.543Z,102.20
2022-12-14T09:44:09.628Z,98.22
2022-12-14T09:45:21.577Z,104.65
2022-12-14T09:46:37.444Z,100.68
2022-12-14T09:47:45.392Z,105.00
2022-12-14T09:48:48.337Z,114.93
2022-12-14T09:49:54.191Z,94.18
2022-12-14T09:50:55.762Z,111.47
2022-12-14T09:52:00.374Z,109.45
2022-12-14T09:53:05.467Z,122.45
2022-12-14T09:54:12.447Z,112.00
2022-12-14T09:55:19.952Z,106.63
2022-12-14T09:56:21.465Z,118.43
2022-12-14T09:57:28.499Z,117.38
2022-12-14T09:58:31.906Z,112.20
2022-12-14T09:59:34.162Z,116.88
2022-12-14T10:00:39.324Z,101.53
2022-12-14T10:02:29.191Z,122.38
2022-12-14T10:03:33.116Z,111.38
2022-12-14T10:04:47.737Z,102.30
2022-12-14T10:06:02.268Z,108.05
2022-12-14T10:07:12.317Z,110.80
2022-12-14T10:08:23.600Z,138.80
2022-12-14T10:09:33.406Z,122.38
2022-12-14T10:10:42.802Z,100.07
2022-12-14T10:11:52.928Z,119.18
2022-12-14T10:13:05.339Z,106.75
2022-12-14T10:14:17.179Z,107.82
2022-12-14T10:15:27.091Z,105.93
2022-12-14T10:16:35.009Z,114.90
2022-12-14T10:17:58.563Z,101.43
2022-12-14T10:19:07.912Z,110.90
2022-12-14T10:20:19.103Z,99.25
2022-12-14T10:21:23.374Z,98.88
2022-12-14T10:22:29.269Z,109.95
2022-12-14T10:23:32.726Z,100.82
2022-12-14T10:24:38.287Z,124.05
2022-12-14T10:25:40.627Z,128.75
2022-12-14T10:26:46.326Z,128.90
2022-12-14T10:28:10.492Z,146.70
2022-12-14T10:29:17.436Z,145.80
2022-12-14T10:30:20.068Z,105.25
2022-12-14T10:31:28.667Z,113.50
2022-12-14T10:32:34.001Z,110.13
2022-12-14T10:33:41.899Z,117.75
2022-12-14T10:34:43.521Z,115.35
2022-12-14T10:35:50.990Z,123.32
2022-12-14T10:36:54.867Z,125.00
2022-12-14T10:38:02.980Z,124.32
2022-12-14T10:39:22.576Z,117.30
2022-12-14T10:40:33.697Z,124.15
2022-12-14T10:41:41.755Z,122.13
2022-12-14T10:42:55.142Z,117.75
2022-12-14T10:44:02.903Z,130.45
2022-12-14T10:46:49.606Z,132.73
2022-12-14T10:47:54.486Z,123.15
2022-12-14T10:49:06.147Z,114.47
2022-12-14T10:50:19.282Z,143.63
2022-12-14T10:51:29.628Z,140.18
2022-12-14T10:52:38.017Z,129.27
2022-12-14T10:53:44.627Z,141.90
2022-12-14T10:54:50.032Z,137.80
2022-12-14T10:55:59.815Z,148.88
2022-12-14T10:57:01.494Z,143.13
2022-12-14T10:58:03.118Z,131.65
2022-12-14T10:59:27.123Z,130.60
2022-12-14T11:00:28.747Z,118.47
2022-12-14T11:01:30.438Z,125.32
2022-12-14T11:02:36.432Z,132.10
2022-12-14T11:03:38.056Z,127.95
2022-12-14T11:04:47.411Z,116.57
2022-12-14T11:05:57.119Z,110.80
2022-12-14T11:07:00.414Z,104.00
2022-12-14T11:08:02.094Z,126.78
2022-12-14T11:09:19.912Z,112.20
2022-12-14T11:10:24.189Z,115.30
2022-12-14T11:11:26.839Z,121.28
2022-12-14T11:12:33.732Z,115.00
2022-12-14T11:13:36.080Z,111.13
2022-12-14T11:14:37.665Z,98.28
2022-12-14T11:15:40.819Z,93.78
2022-12-14T11:16:42.422Z,114.55
2022-12-14T11:17:47.087Z,139.55
2022-12-14T11:18:57.164Z,160.25
2022-12-14T11:20:17.723Z,105.15
2022-12-14T11:21:28.374Z,150.10
2022-12-14T11:22:43.293Z,110.32
2022-12-14T11:23:45.013Z,116.35
2022-12-14T11:24:47.969Z,133.32
2022-12-14T11:25:53.163Z,143.13
2022-12-14T11:26:59.069Z,123.25
2022-12-14T11:28:05.270Z,132.80
2022-12-14T11:29:17.005Z,145.50
2022-12-14T11:30:18.540Z,138.07
2022-12-14T11:31:22.595Z,110.55
2022-12-14T11:32:25.051Z,139.50
2022-12-14T11:33:32.157Z,133.07
2022-12-14T11:34:35.850Z,104.03
2022-12-14T11:35:38.748Z,104.65
2022-12-14T11:36:41.873Z,116.57
2022-12-14T11:37:43.686Z,92.97
2022-12-14T11:38:54.688Z,77.88
2022-12-14T11:39:58.759Z,98.63
2022-12-14T11:41:08.909Z,117.70
2022-12-14T11:42:16.996Z,115.93
2022-12-14T11:43:26.020Z,107.95
2022-12-14T11:44:29.784Z,112.78
2022-12-14T11:45:33.315Z,105.53
2022-12-14T11:46:44.950Z,96.10
2022-12-14T11:47:46.755Z,110.22
2022-12-14T11:48:49.464Z,101.97
2022-12-14T11:49:52.625Z,113.72
2022-12-14T11:51:09.099Z,135.05
2022-12-14T11:52:14.065Z,170.95
2022-12-14T11:53:27.528Z,110.45
2022-12-14T11:54:29.565Z,92.22
2022-12-14T11:55:32.105Z,80.28
2022-12-14T11:56:36.636Z,91.30
2022-12-14T11:57:48.237Z,74.05
2022-12-14T11:58:53.497Z,61.40
2022-12-14T11:59:58.566Z,66.43
2022-12-14T12:01:04.705Z,74.85
2022-12-14T12:02:20.095Z,75.18
2022-12-14T12:03:24.842Z,69.15
2022-12-14T12:04:26.421Z,68.00
2022-12-14T12:05:31.557Z,55.70
2022-12-14T12:06:34.610Z,63.25
2022-12-14T12:07:39.123Z,64.03
2022-12-14T12:08:41.941Z,60.58
2022-12-14T12:09:43.463Z,67.22
2022-12-14T12:10:49.927Z,63.50
2022-12-14T12:11:52.199Z,61.20
2022-12-14T12:12:56.357Z,62.45
2022-12-14T12:14:00.526Z,57.92
2022-12-14T12:15:03.052Z,65.10
2022-12-14T12:16:11.962Z,60.30
2022-12-14T12:17:26.781Z,58.83
2022-12-14T12:18:34.974Z,61.15
2022-12-14T12:19:38.491Z,69.07
2022-12-14T12:20:47.459Z,58.75
2022-12-14T12:21:54.754Z,67.40
2022-12-14T12:23:00.973Z,60.40
2022-12-14T12:24:06.181Z,66.35
2022-12-14T12:25:26.719Z,69.75
2022-12-14T12:26:34.280Z,66.88
2022-12-14T12:27:36.049Z,66.60
2022-12-14T12:28:43.507Z,66.38
2022-12-14T12:29:48.248Z,69.40
2022-12-14T12:30:53.085Z,77.57
2022-12-14T12:31:58.092Z,74.43
2022-12-14T12:33:07.832Z,71.95
2022-12-14T12:34:14.743Z,68.25
2022-12-14T12:35:21.171Z,71.10
2022-12-14T12:36:24.387Z,73.05
2022-12-14T12:37:33.322Z,77.55
2022-12-14T12:38:44.134Z,75.53
2022-12-14T12:39:58.987Z,69.50
2022-12-14T12:41:06.670Z,74.05
2022-12-14T12:42:18.200Z,64.47
2022-12-14T12:43:25.903Z,67.43
2022-12-14T12:44:43.473Z,66.18
2022-12-14T12:45:55.607Z,63.55
2022-12-14T12:47:25.195Z,66.40
2022-12-14T12:48:33.093Z,71.18
2022-12-14T12:49:34.911Z,80.90
2022-12-14T12:50:42.370Z,79.05
2022-12-14T12:51:47.517Z,70.40
2022-12-14T12:53:02.652Z,69.68
2022-12-14T12:54:20.327Z,65.90
2022-12-14T12:55:24.890Z,72.07
2022-12-14T12:56:48.269Z,75.35
2022-12-14T12:57:54.021Z,73.88
2022-12-14T12:58:56.021Z,73.53
2022-12-14T12:59:58.591Z,77.53
2022-12-14T13:01:03.356Z,81.18
2022-12-14T13:02:20.139Z,75.30
2022-12-14T13:03:51.087Z,81.93
2022-12-14T13:04:53.592Z,74.60
2022-12-14T13:06:04.214Z,72.85
2022-12-14T13:07:10.515Z,74.53
2022-12-14T13:08:22.623Z,82.82
2022-12-14T13:09:36.682Z,70.05
2022-12-14T13:10:55.773Z,78.45
2022-12-14T13:12:06.792Z,68.22
2022-12-14T13:13:12.748Z,68.68
2022-12-14T13:14:26.977Z,76.25
2022-12-14T13:15:35.636Z,71.45
2022-12-14T13:16:38.858Z,110.15
2022-12-14T13:17:45.784Z,103.68
2022-12-14T13:19:04.822Z,79.00
2022-12-14T13:20:20.890Z,99.25
2022-12-14T13:21:31.193Z,84.10
2022-12-14T13:22:34.601Z,88.47
2022-12-14T13:23:44.723Z,94.03
2022-12-14T13:24:54.037Z,84.15
2022-12-14T13:26:55.597Z,82.07
2022-12-14T13:28:08.424Z,74.95
2022-12-14T13:29:21.475Z,81.13
2022-12-14T13:30:36.861Z,83.72
2022-12-14T13:31:46.932Z,80.55
2022-12-14T13:33:07.669Z,87.57
2022-12-14T13:34:22.102Z,88.63
2022-12-14T13:35:41.358Z,92.60
2022-12-14T13:37:13.249Z,113.35
2022-12-14T13:38:33.845Z,90.35
2022-12-14T13:40:09.060Z,103.35
2022-12-14T13:41:32.312Z,116.35
2022-12-14T13:42:44.835Z,140.63
2022-12-14T13:44:07.721Z,93.90
2022-12-14T13:45:17.442Z,86.05
2022-12-14T13:46:22.321Z,85.47
2022-12-14T13:47:29.593Z,90.28
2022-12-14T13:48:39.664Z,106.13
2022-12-14T13:49:41.363Z,80.22
2022-12-14T13:50:52.977Z,84.32
2022-12-14T13:52:41.986Z,84.65
2022-12-14T13:53:48.192Z,76.63
2022-12-14T13:54:52.327Z,71.25
2022-12-14T13:55:56.270Z,79.43
2022-12-14T13:57:05.364Z,80.78
2022-12-14T13:58:12.739Z,76.07
2022-12-14T13:59:29.185Z,76.75
2022-12-14T14:00:56.828Z,102.82
2022-12-14T14:02:00.227Z,82.10
2022-12-14T14:03:01.982Z,101.63
2022-12-14T14:04:20.905Z,65.20
2022-12-14T14:05:44.268Z,81.53
2022-12-14T14:06:47.160Z,80.03
2022-12-14T14:07:56.723Z,81.70